Terminal Aerodrome Forecast
Issued by NWS

Home | Current Version | Previous Version | Text Only | Print | Product List | Glossary Off
Versions: 1 2 3 4 5 6 7 8 9 10 11 12 13 14

000
FTUS43 KICT 250527
TAFSLN
TAF
KSLN 250527Z 2506/2606 29016G23KT P6SM SCT050 BKN100
     FM251200 32025G35KT P6SM SCT050 BKN120
     FM251500 34026G37KT P6SM SCT050 BKN100
     FM252300 32012KT P6SM SCT250
     FM260300 33006KT P6SM FEW250=

USA.gov is the U.S. government's official web portal to all federal, state and local government web resources and services.